Time;durP1;ratioP1;P1;durP2;ratioP2;P2;SDS_P1;SDS_P2;PMS_P1;PMS_P2;Temp;Humidity;BMP_temperature;BMP_pressure;BME280_temperature;BME280_humidity;BME280_pressure;Samples;Min_cycle;Max_cycle;Signal;HPM_P1;HPM_P2
2022/02/01 00:01:27;;;;;;;6.63;2.40;;;3.90;99.70;;;;;;5033472;28;20475;-66
2022/02/01 00:03:55;;;;;;;8.30;2.80;;;3.90;99.70;;;;;;5038587;28;20452;-65
2022/02/01 00:06:28;;;;;;;10.20;3.37;;;3.90;99.70;;;;;;5030968;28;20920;-63
2022/02/01 00:09:04;;;;;;;8.77;2.70;;;3.80;99.70;;;;;;5010956;28;20449;-64
2022/02/01 00:11:40;;;;;;;5.17;2.50;;;3.90;99.70;;;;;;5011173;28;20495;-64
2022/02/01 00:14:11;;;;;;;4.90;2.43;;;3.90;99.70;;;;;;5011114;28;20469;-64
2022/02/01 00:16:55;;;;;;;4.70;2.87;;;3.90;99.70;;;;;;5020367;28;20483;-64
2022/02/01 00:35:57;;;;;;;5.80;2.13;;;3.90;99.70;;;;;;5018699;28;20475;-64
2022/02/01 00:38:27;;;;;;;4.90;2.17;;;4.00;99.70;;;;;;5047200;28;20479;-65
2022/02/01 00:40:57;;;;;;;4.33;2.10;;;3.90;99.70;;;;;;5051646;28;20492;-64
2022/02/01 00:43:25;;;;;;;6.03;2.03;;;3.90;99.70;;;;;;5046562;28;20454;-67
2022/02/01 00:45:52;;;;;;;7.57;2.70;;;3.90;99.70;;;;;;5053935;28;20463;-67
2022/02/01 00:48:18;;;;;;;6.90;2.50;;;3.90;99.70;;;;;;5053712;28;20446;-67
2022/02/01 00:50:45;;;;;;;4.93;2.17;;;4.00;99.70;;;;;;5054115;28;20439;-67
2022/02/01 00:53:12;;;;;;;4.17;1.97;;;4.10;99.70;;;;;;5053964;28;20447;-67
2022/02/01 00:55:38;;;;;;;4.90;2.17;;;4.10;99.70;;;;;;5046876;28;21011;-65
2022/02/01 00:58:05;;;;;;;4.30;2.07;;;4.00;99.70;;;;;;5019296;28;20441;-65
2022/02/01 01:00:33;;;;;;;4.20;1.93;;;3.90;99.70;;;;;;5022835;28;20480;-64
2022/02/01 01:03:00;;;;;;;3.90;2.03;;;3.90;99.70;;;;;;5040296;28;20451;-67
2022/02/01 01:05:27;;;;;;;3.20;1.63;;;3.90;99.70;;;;;;5051349;28;20474;-66
2022/02/01 01:07:53;;;;;;;4.10;1.90;;;3.90;99.70;;;;;;5034682;28;20444;-66
2022/02/01 01:10:20;;;;;;;3.10;1.60;;;3.90;99.70;;;;;;5035039;28;20452;-66
2022/02/01 01:12:56;;;;;;;3.93;1.87;;;3.90;99.70;;;;;;5034951;28;20474;-65
2022/02/01 01:15:26;;;;;;;5.00;2.00;;;4.00;99.70;;;;;;5038784;28;20970;-65
2022/02/01 01:45:21;;;;;;;7.63;2.50;;;3.50;99.70;;;;;;5002467;28;20487;-67
2022/02/01 01:53:21;;;;;;;4.83;2.37;;;3.60;99.70;;;;;;5032713;28;20518;-64
2022/02/01 01:55:49;;;;;;;6.03;2.40;;;3.60;99.70;;;;;;5034368;28;20469;-66
2022/02/01 01:58:16;;;;;;;5.63;2.30;;;3.60;99.70;;;;;;5032768;28;20455;-66
2022/02/01 02:03:35;;;;;;;6.33;2.50;;;3.70;99.70;;;;;;5033257;28;20479;-66
2022/02/01 02:06:03;;;;;;;9.17;2.30;;;3.70;99.70;;;;;;5032876;28;20468;-67
2022/02/01 02:08:30;;;;;;;8.33;2.80;;;3.80;99.70;;;;;;5032616;28;20449;-66
2022/02/01 02:11:02;;;;;;;7.37;3.50;;;3.80;99.70;;;;;;5033023;28;20491;-66
2022/02/01 02:16:13;;;;;;;7.10;2.50;;;3.60;99.70;;;;;;5033277;28;20959;-66
2022/02/01 02:18:39;;;;;;;7.30;2.73;;;3.70;99.70;;;;;;5032570;28;20437;-66
2022/02/01 02:21:07;;;;;;;13.50;2.60;;;3.70;99.70;;;;;;5032622;28;20503;-66
2022/02/01 02:23:34;;;;;;;11.80;3.07;;;3.80;99.70;;;;;;5032674;28;20452;-67
2022/02/01 02:26:06;;;;;;;6.70;2.47;;;3.80;99.70;;;;;;5032621;28;20464;-66
2022/02/01 02:28:33;;;;;;;8.60;2.80;;;3.80;99.70;;;;;;5032131;28;20506;-66
2022/02/01 02:31:01;;;;;;;5.33;2.50;;;3.70;99.70;;;;;;5032790;28;20433;-66
2022/02/01 02:33:28;;;;;;;7.73;2.30;;;3.70;99.70;;;;;;5031768;28;20933;-66
2022/02/01 02:35:59;;;;;;;7.50;3.00;;;3.70;99.70;;;;;;5032219;28;20486;-65
2022/02/01 02:38:33;;;;;;;10.17;2.60;;;3.70;99.70;;;;;;5032015;28;20882;-66
2022/02/01 02:41:27;;;;;;;5.13;2.20;;;3.70;99.70;;;;;;5032413;28;20545;-66
2022/02/01 02:46:41;;;;;;;9.30;2.80;;;3.60;99.70;;;;;;5032316;28;20456;-66
2022/02/01 02:49:09;;;;;;;8.20;2.30;;;3.60;99.70;;;;;;5031924;28;20445;-67
2022/02/01 02:51:36;;;;;;;10.17;2.77;;;3.60;99.70;;;;;;5032223;28;20449;-66
2022/02/01 02:54:06;;;;;;;9.23;3.03;;;3.70;99.70;;;;;;5032145;28;20444;-66
2022/02/01 02:56:34;;;;;;;6.63;2.70;;;3.50;99.70;;;;;;5032269;28;20465;-65
2022/02/01 02:59:00;;;;;;;9.40;2.80;;;3.50;99.70;;;;;;5031699;28;20445;-65
2022/02/01 03:01:27;;;;;;;8.57;3.00;;;3.60;99.70;;;;;;5031901;28;20480;-66
2022/02/01 03:03:54;;;;;;;11.40;3.03;;;3.50;99.70;;;;;;5031176;28;20531;-66
2022/02/01 03:06:21;;;;;;;13.20;2.70;;;3.60;99.70;;;;;;5031676;28;20468;-66
2022/02/01 03:08:47;;;;;;;7.43;2.50;;;3.60;99.70;;;;;;5031445;28;20503;-66
2022/02/01 03:11:16;;;;;;;11.83;2.90;;;3.60;99.70;;;;;;5031779;28;20483;-66
2022/02/01 03:13:48;;;;;;;8.13;2.77;;;3.50;99.70;;;;;;5031788;28;20740;-65
2022/02/01 03:16:30;;;;;;;11.50;2.73;;;3.50;99.70;;;;;;5031690;28;20468;-66
2022/02/01 03:21:42;;;;;;;10.37;2.97;;;3.60;99.70;;;;;;5031937;28;20970;-66
2022/02/01 03:24:08;;;;;;;12.10;3.07;;;3.50;99.70;;;;;;5031596;28;20444;-66
2022/02/01 03:26:36;;;;;;;11.63;2.90;;;3.60;99.70;;;;;;5031390;28;20535;-66
2022/02/01 03:29:04;;;;;;;10.30;2.67;;;3.60;99.70;;;;;;5031077;28;20449;-66
2022/02/01 03:31:31;;;;;;;10.10;2.70;;;3.60;99.70;;;;;;5031486;28;20499;-66
2022/02/01 03:33:57;;;;;;;8.90;2.63;;;3.60;99.70;;;;;;5030732;28;20546;-66
2022/02/01 03:36:25;;;;;;;18.00;3.40;;;3.60;99.70;;;;;;5031124;28;20476;-66
2022/02/01 03:38:52;;;;;;;14.33;2.70;;;3.50;99.70;;;;;;5030990;28;20448;-66
2022/02/01 03:41:20;;;;;;;11.27;2.97;;;3.50;99.70;;;;;;5031225;28;20919;-66
2022/02/01 03:43:48;;;;;;;11.93;2.70;;;3.50;99.70;;;;;;5031245;28;20448;-66
2022/02/01 03:46:14;;;;;;;9.00;3.37;;;3.60;99.70;;;;;;5031207;28;20461;-66
2022/02/01 03:48:41;;;;;;;10.40;2.80;;;3.60;99.70;;;;;;5030841;28;20444;-66
2022/02/01 03:51:09;;;;;;;18.43;2.70;;;3.40;99.70;;;;;;5031227;28;20447;-66
2022/02/01 03:53:36;;;;;;;17.63;3.43;;;3.40;99.70;;;;;;5031201;28;20487;-66
2022/02/01 03:56:03;;;;;;;13.53;2.93;;;3.40;99.70;;;;;;5030963;28;20476;-65
2022/02/01 03:58:30;;;;;;;12.13;2.90;;;3.40;99.70;;;;;;5041786;28;20509;-66
2022/02/01 04:00:58;;;;;;;8.83;2.50;;;3.40;99.70;;;;;;5051009;28;20923;-66
2022/02/01 04:03:25;;;;;;;16.03;3.40;;;3.50;99.70;;;;;;5050738;28;20864;-66
2022/02/01 04:05:52;;;;;;;11.87;3.30;;;3.50;99.70;;;;;;5050967;28;20866;-66
2022/02/01 04:08:20;;;;;;;13.10;3.23;;;3.50;99.70;;;;;;5050457;28;20443;-66
2022/02/01 04:10:49;;;;;;;16.70;3.20;;;3.50;99.70;;;;;;5050853;28;21050;-66
2022/02/01 04:13:16;;;;;;;9.97;2.80;;;3.50;99.70;;;;;;5050910;28;20455;-66
2022/02/01 04:15:43;;;;;;;8.77;2.77;;;3.60;99.70;;;;;;5052014;28;20467;-66
2022/02/01 04:18:11;;;;;;;12.10;3.17;;;3.70;99.70;;;;;;5054454;28;20801;-66
2022/02/01 04:20:38;;;;;;;10.37;3.00;;;3.70;99.70;;;;;;5054947;28;20481;-66
2022/02/01 04:23:05;;;;;;;11.53;2.73;;;3.70;99.70;;;;;;5054887;28;20483;-67
2022/02/01 04:25:33;;;;;;;10.50;2.83;;;3.70;99.70;;;;;;5054829;28;20885;-67
2022/02/01 04:27:59;;;;;;;10.07;2.57;;;3.70;99.70;;;;;;5054505;28;20774;-67
2022/02/01 04:30:26;;;;;;;15.53;3.17;;;3.60;99.70;;;;;;5054929;28;20451;-66
2022/02/01 04:32:54;;;;;;;12.03;3.00;;;3.60;99.70;;;;;;5053897;28;20927;-66
2022/02/01 04:35:24;;;;;;;8.80;2.60;;;3.60;99.70;;;;;;5054472;28;20839;-66
2022/02/01 04:37:53;;;;;;;13.57;3.20;;;3.70;99.70;;;;;;5054255;28;20508;-66
2022/02/01 04:40:22;;;;;;;12.43;2.50;;;3.70;99.70;;;;;;5054480;28;20447;-67
2022/02/01 04:42:50;;;;;;;10.40;2.63;;;3.50;99.70;;;;;;5054546;28;20475;-66
2022/02/01 04:45:19;;;;;;;14.77;2.90;;;3.50;99.70;;;;;;5054406;28;20471;-66
2022/02/01 04:47:46;;;;;;;10.73;2.10;;;3.60;99.70;;;;;;5054113;28;20526;-64
2022/02/01 04:50:15;;;;;;;9.03;2.20;;;3.60;99.70;;;;;;5054437;28;20447;-67
2022/02/01 04:52:46;;;;;;;10.03;3.40;;;3.40;99.70;;;;;;5054327;28;20831;-65
2022/02/01 04:55:14;;;;;;;11.33;2.80;;;3.50;99.70;;;;;;5054254;28;20524;-66
2022/02/01 04:57:52;;;;;;;8.67;3.00;;;3.50;99.70;;;;;;5054086;28;20447;-64
2022/02/01 05:00:19;;;;;;;10.40;2.63;;;3.40;99.70;;;;;;5054292;28;20634;-66
2022/02/01 05:02:46;;;;;;;12.93;4.63;;;3.30;99.70;;;;;;5054014;28;20851;-66
2022/02/01 05:05:13;;;;;;;12.53;2.57;;;3.30;99.70;;;;;;5053903;28;20898;-66
2022/02/01 05:07:39;;;;;;;13.20;2.63;;;3.40;99.70;;;;;;5054088;28;20451;-65
2022/02/01 05:10:08;;;;;;;10.10;2.77;;;3.40;99.70;;;;;;5053837;28;20968;-66
2022/02/01 05:12:37;;;;;;;7.53;2.30;;;3.50;99.70;;;;;;5053903;28;20451;-66
2022/02/01 05:15:07;;;;;;;13.73;2.77;;;3.50;99.70;;;;;;5054113;28;20495;-66
2022/02/01 05:17:36;;;;;;;13.33;2.83;;;3.40;99.70;;;;;;5053928;28;20443;-65
2022/02/01 05:20:16;;;;;;;10.90;2.83;;;3.50;99.70;;;;;;5053634;28;20474;-65
2022/02/01 05:22:43;;;;;;;8.53;2.50;;;3.50;99.70;;;;;;5053772;28;20483;-66
2022/02/01 05:25:11;;;;;;;13.33;2.87;;;3.50;99.70;;;;;;5053700;28;20542;-66
2022/02/01 05:27:40;;;;;;;12.87;2.80;;;3.40;99.70;;;;;;5052461;28;20466;-64
2022/02/01 05:30:07;;;;;;;8.00;2.10;;;3.50;99.70;;;;;;5053378;28;20448;-66
2022/02/01 05:32:34;;;;;;;9.57;2.27;;;3.30;99.70;;;;;;5053424;28;20451;-66
2022/02/01 05:35:01;;;;;;;7.03;2.20;;;3.40;99.70;;;;;;5053540;28;20907;-66
2022/02/01 05:37:27;;;;;;;12.17;2.70;;;3.40;99.70;;;;;;5053527;28;20444;-65
2022/02/01 05:39:57;;;;;;;10.87;2.47;;;3.40;99.70;;;;;;5052923;28;20470;-65
2022/02/01 05:42:35;;;;;;;14.30;2.80;;;3.40;99.70;;;;;;5053398;28;20490;-66
2022/02/01 05:45:02;;;;;;;8.30;2.33;;;3.40;99.70;;;;;;5039970;28;20850;-66
2022/02/01 05:47:29;;;;;;;14.07;3.17;;;3.40;99.70;;;;;;5032528;28;20479;-67
2022/02/01 05:49:56;;;;;;;9.93;2.17;;;3.40;99.70;;;;;;5032394;28;20464;-66
2022/02/01 05:52:23;;;;;;;10.90;2.50;;;3.40;99.70;;;;;;5028986;28;20497;-66
2022/02/01 05:54:50;;;;;;;8.33;2.10;;;3.40;99.70;;;;;;5027736;28;20477;-66
2022/02/01 05:57:16;;;;;;;12.63;3.17;;;3.40;99.70;;;;;;5030607;28;20846;-66
2022/02/01 05:59:44;;;;;;;14.23;2.50;;;3.40;99.70;;;;;;5031971;28;20452;-67
2022/02/01 06:02:11;;;;;;;13.07;2.60;;;3.50;99.70;;;;;;5032192;28;20468;-65
2022/02/01 06:04:38;;;;;;;11.40;2.90;;;3.40;99.70;;;;;;5032277;28;20467;-66
2022/02/01 06:07:05;;;;;;;10.90;2.90;;;3.50;99.70;;;;;;5029437;28;20437;-63
2022/02/01 06:09:32;;;;;;;12.30;2.33;;;3.40;99.70;;;;;;5030583;28;20433;-66
2022/02/01 06:11:58;;;;;;;8.50;2.60;;;3.30;99.70;;;;;;5030353;28;20456;-66
2022/02/01 06:14:25;;;;;;;13.23;2.50;;;3.30;99.70;;;;;;5031477;28;20440;-66
2022/02/01 06:16:53;;;;;;;10.80;2.70;;;3.30;99.70;;;;;;5031011;28;20480;-66
2022/02/01 06:19:20;;;;;;;12.50;2.70;;;3.30;99.70;;;;;;5030749;28;20522;-66
2022/02/01 06:21:46;;;;;;;9.40;2.40;;;3.30;99.70;;;;;;5032639;28;20445;-67
2022/02/01 06:24:17;;;;;;;15.07;3.00;;;3.20;99.70;;;;;;5031655;28;20815;-66
2022/02/01 06:26:44;;;;;;;6.20;2.23;;;3.30;99.70;;;;;;5032192;28;20496;-66
2022/02/01 06:29:10;;;;;;;18.90;2.90;;;3.30;99.70;;;;;;5032119;28;20453;-66
2022/02/01 06:31:37;;;;;;;15.67;2.87;;;3.30;99.70;;;;;;5032403;28;20502;-66
2022/02/01 06:34:05;;;;;;;14.70;2.67;;;3.20;99.70;;;;;;5035796;28;20437;-66
2022/02/01 06:36:32;;;;;;;14.30;2.73;;;3.30;99.70;;;;;;5032264;28;20480;-67
2022/02/01 06:38:58;;;;;;;13.80;2.93;;;3.30;99.70;;;;;;5031662;28;20447;-66
2022/02/01 06:41:25;;;;;;;10.90;2.40;;;3.30;99.70;;;;;;5050327;28;20452;-67
2022/02/01 06:43:52;;;;;;;13.20;2.67;;;3.30;99.70;;;;;;5051778;28;20480;-67
2022/02/01 06:46:20;;;;;;;11.37;2.90;;;3.30;99.70;;;;;;5051863;28;20468;-66
2022/02/01 06:48:46;;;;;;;18.70;3.47;;;3.30;99.70;;;;;;5051774;28;20534;-66
2022/02/01 06:51:18;;;;;;;9.00;3.00;;;3.30;99.70;;;;;;5051413;28;20490;-65
2022/02/01 06:53:45;;;;;;;9.30;2.63;;;3.20;99.70;;;;;;5051841;28;21014;-66
2022/02/01 06:56:18;;;;;;;7.97;2.33;;;3.30;99.70;;;;;;5051653;28;20901;-66
2022/02/01 06:58:45;;;;;;;8.03;2.77;;;3.30;99.70;;;;;;5051527;28;20825;-67
2022/02/01 07:01:12;;;;;;;13.80;2.50;;;3.30;99.70;;;;;;5051754;28;20471;-66
2022/02/01 07:03:39;;;;;;;10.53;2.63;;;3.40;99.70;;;;;;5051754;28;20888;-66
2022/02/01 07:06:11;;;;;;;15.20;2.70;;;3.20;99.70;;;;;;5051450;28;20517;-67
2022/02/01 07:08:40;;;;;;;9.30;2.53;;;3.20;99.70;;;;;;5051196;28;20932;-67
2022/02/01 07:11:07;;;;;;;7.57;2.80;;;3.30;99.70;;;;;;5051603;28;20439;-66
2022/02/01 07:13:33;;;;;;;7.93;2.57;;;3.20;99.70;;;;;;5051814;28;20978;-66
2022/02/01 07:16:00;;;;;;;14.53;2.70;;;3.30;99.70;;;;;;5050865;28;20818;-67
2022/02/01 07:18:27;;;;;;;9.53;2.77;;;3.30;99.70;;;;;;5050000;28;20455;-66
2022/02/01 07:20:54;;;;;;;12.83;2.90;;;3.20;99.70;;;;;;5051671;28;20447;-66
2022/02/01 07:23:23;;;;;;;13.30;2.50;;;3.30;99.70;;;;;;5051248;28;20480;-66
2022/02/01 07:25:52;;;;;;;7.03;2.73;;;3.40;99.70;;;;;;5051097;28;20510;-66
2022/02/01 07:28:20;;;;;;;14.23;2.83;;;3.40;99.70;;;;;;5050793;28;20443;-67
2022/02/01 07:30:47;;;;;;;9.07;2.70;;;3.50;99.70;;;;;;5051360;28;20446;-66
2022/02/01 07:33:15;;;;;;;9.60;2.80;;;3.40;99.70;;;;;;5050812;28;20436;-66
2022/02/01 07:35:42;;;;;;;8.60;3.13;;;3.40;99.70;;;;;;5050890;28;20475;-67
2022/02/01 07:38:11;;;;;;;8.80;2.80;;;3.40;99.70;;;;;;5050751;28;20513;-66
2022/02/01 07:40:37;;;;;;;11.43;2.73;;;3.40;99.70;;;;;;5051362;28;20444;-66
2022/02/01 07:43:05;;;;;;;12.67;3.33;;;3.40;99.70;;;;;;5051118;28;20848;-66
2022/02/01 07:45:32;;;;;;;11.00;2.73;;;3.40;99.70;;;;;;5050912;28;20462;-64
2022/02/01 07:48:02;;;;;;;12.43;2.67;;;3.40;99.70;;;;;;5050826;28;20435;-66
2022/02/01 07:50:32;;;;;;;17.13;4.60;;;3.50;99.70;;;;;;5050349;28;20436;-66
2022/02/01 07:52:59;;;;;;;9.90;2.60;;;3.40;99.70;;;;;;5050802;28;20519;-65
2022/02/01 07:57:54;;;;;;;15.30;3.43;;;3.50;99.70;;;;;;5045750;28;20947;-66
2022/02/01 08:00:22;;;;;;;9.90;2.57;;;3.50;99.70;;;;;;5051345;28;20436;-66
2022/02/01 08:02:51;;;;;;;6.57;2.57;;;3.70;99.70;;;;;;5051266;28;20510;-65
2022/02/01 08:05:18;;;;;;;13.57;3.20;;;3.60;99.70;;;;;;5051209;28;20448;-65
2022/02/01 08:07:44;;;;;;;8.50;3.10;;;3.70;99.70;;;;;;5051051;28;20815;-65
2022/02/01 08:10:14;;;;;;;15.37;3.20;;;3.60;99.70;;;;;;5051148;28;20939;-66
2022/02/01 08:18:28;;;;;;;14.10;2.93;;;3.80;99.70;;;;;;5051024;28;20450;-65
2022/02/01 08:20:57;;;;;;;12.67;2.90;;;3.80;99.70;;;;;;5050173;28;20447;-66
2022/02/01 08:23:24;;;;;;;9.30;2.90;;;3.80;99.70;;;;;;5051010;28;20483;-65
2022/02/01 08:25:51;;;;;;;13.00;2.97;;;3.90;99.70;;;;;;5050362;28;20817;-66
2022/02/01 08:28:19;;;;;;;8.30;2.60;;;3.90;99.70;;;;;;5050546;28;20455;-65
2022/02/01 08:30:50;;;;;;;9.87;2.77;;;4.00;99.70;;;;;;5050992;28;20502;-66
2022/02/01 08:33:17;;;;;;;11.00;2.70;;;4.00;99.70;;;;;;5050740;28;20526;-65
2022/02/01 08:35:44;;;;;;;5.83;3.00;;;4.10;99.70;;;;;;5050940;28;20538;-66
2022/02/01 08:38:10;;;;;;;10.13;3.20;;;4.20;99.70;;;;;;5049963;28;20971;-66
2022/02/01 08:40:37;;;;;;;14.23;3.90;;;4.30;99.70;;;;;;5050955;28;20455;-66
2022/02/01 08:43:04;;;;;;;10.40;3.00;;;4.40;99.70;;;;;;5050825;28;20892;-66
2022/02/01 08:45:31;;;;;;;10.60;3.00;;;4.30;99.70;;;;;;5050932;28;20451;-66
2022/02/01 08:48:00;;;;;;;6.73;2.80;;;4.40;99.70;;;;;;5050475;28;20439;-66
2022/02/01 08:50:31;;;;;;;9.10;2.93;;;4.10;99.70;;;;;;5049965;28;20444;-66
2022/02/01 08:53:09;;;;;;;11.20;3.00;;;4.00;99.70;;;;;;5050368;28;20440;-66
2022/02/01 08:55:39;;;;;;;8.70;2.60;;;4.00;99.70;;;;;;5050554;28;20445;-66
2022/02/01 08:58:07;;;;;;;11.30;3.50;;;4.10;99.70;;;;;;5050457;28;20543;-67
2022/02/01 09:00:35;;;;;;;8.23;2.90;;;4.10;99.70;;;;;;5050791;28;20439;-66
2022/02/01 09:03:06;;;;;;;7.30;3.27;;;4.10;99.70;;;;;;5053463;28;20475;-66
2022/02/01 09:05:33;;;;;;;9.13;3.27;;;4.10;99.70;;;;;;5054123;28;20446;-65
2022/02/01 09:08:02;;;;;;;11.93;3.30;;;4.10;99.70;;;;;;5054010;28;20451;-66
2022/02/01 09:10:29;;;;;;;10.17;2.80;;;4.10;99.70;;;;;;5054363;28;20518;-66
2022/02/01 09:12:55;;;;;;;11.17;3.27;;;4.30;99.70;;;;;;5054336;28;20939;-66
2022/02/01 09:15:26;;;;;;;9.97;3.33;;;4.30;99.70;;;;;;5053138;28;20452;-66
2022/02/01 09:17:54;;;;;;;7.73;3.00;;;4.30;99.70;;;;;;5053748;28;20538;-66
2022/02/01 09:20:22;;;;;;;7.00;2.90;;;4.20;99.70;;;;;;5054201;28;20815;-66
2022/02/01 09:22:49;;;;;;;14.47;3.17;;;4.40;99.70;;;;;;5054292;28;20443;-66
2022/02/01 09:25:17;;;;;;;10.40;3.30;;;4.50;99.70;;;;;;5053940;28;20447;-66
2022/02/01 09:27:44;;;;;;;9.03;3.20;;;4.60;99.70;;;;;;5053872;28;20463;-66
2022/02/01 09:30:14;;;;;;;8.60;3.40;;;4.60;99.70;;;;;;5048656;28;20470;-66
2022/02/01 09:32:41;;;;;;;6.27;2.70;;;4.80;99.70;;;;;;5050273;28;20481;-65
2022/02/01 09:35:08;;;;;;;16.20;3.97;;;4.50;99.70;;;;;;5052018;28;20515;-64
2022/02/01 09:37:36;;;;;;;8.07;2.90;;;4.50;99.70;;;;;;5051398;28;20483;-65
2022/02/01 09:40:04;;;;;;;9.90;3.13;;;4.50;99.70;;;;;;5051318;28;20452;-66
2022/02/01 09:42:31;;;;;;;11.60;3.20;;;4.40;99.70;;;;;;5046128;28;20452;-66
2022/02/01 09:44:58;;;;;;;9.37;2.83;;;4.50;99.70;;;;;;5040302;28;20967;-66
2022/02/01 09:47:33;;;;;;;6.50;2.50;;;4.60;99.70;;;;;;5045370;28;20468;-65
2022/02/01 09:50:01;;;;;;;8.03;2.93;;;4.70;99.70;;;;;;5039267;28;20954;-65
2022/02/01 09:52:30;;;;;;;15.03;3.20;;;4.60;99.70;;;;;;5032379;28;20845;-66
2022/02/01 09:54:58;;;;;;;9.57;2.77;;;4.80;99.70;;;;;;5033076;28;20443;-66
2022/02/01 09:57:25;;;;;;;7.80;2.93;;;4.90;99.70;;;;;;5033389;28;20475;-66
2022/02/01 09:59:56;;;;;;;8.60;2.70;;;5.00;99.70;;;;;;5033125;28;20498;-66
2022/02/01 10:02:34;;;;;;;10.40;3.00;;;5.00;99.70;;;;;;5033642;28;20539;-67
2022/02/01 10:05:02;;;;;;;11.80;2.90;;;5.10;99.70;;;;;;5033262;28;20491;-66
2022/02/01 10:07:28;;;;;;;5.40;2.50;;;4.90;99.70;;;;;;5032878;28;20464;-66
2022/02/01 10:09:58;;;;;;;4.50;2.40;;;5.10;99.70;;;;;;5032891;28;20444;-65
2022/02/01 10:12:29;;;;;;;7.97;2.43;;;5.20;99.70;;;;;;5033020;28;20445;-66
2022/02/01 10:15:02;;;;;;;5.50;2.30;;;5.10;99.70;;;;;;5036930;28;20932;-66
2022/02/01 10:17:35;;;;;;;8.20;2.40;;;5.00;99.70;;;;;;5045907;28;20478;-66
2022/02/01 10:20:01;;;;;;;6.63;2.57;;;5.10;99.70;;;;;;5041183;28;20436;-67
2022/02/01 10:22:33;;;;;;;9.37;2.67;;;5.20;99.70;;;;;;5053055;28;20443;-66
2022/02/01 10:25:03;;;;;;;7.50;2.60;;;5.40;99.70;;;;;;5037760;28;20507;-66
2022/02/01 10:27:31;;;;;;;6.93;2.30;;;5.30;99.70;;;;;;5032827;28;20887;-67
2022/02/01 10:30:04;;;;;;;5.37;2.73;;;5.30;99.70;;;;;;5032570;28;20535;-66
2022/02/01 10:32:44;;;;;;;7.30;2.43;;;5.00;99.70;;;;;;5032124;28;20603;-67
2022/02/01 10:35:23;;;;;;;9.83;2.50;;;4.90;99.70;;;;;;5035961;28;20459;-66
2022/02/01 10:37:59;;;;;;;8.93;2.87;;;4.90;99.70;;;;;;5041794;28;20501;-66
2022/02/01 10:40:39;;;;;;;5.70;2.20;;;4.90;99.70;;;;;;5041560;28;20677;-65
2022/02/01 10:43:16;;;;;;;9.57;2.23;;;4.90;99.70;;;;;;5048189;28;20439;-63
2022/02/01 10:45:44;;;;;;;6.40;2.20;;;4.90;99.70;;;;;;5036127;28;20452;-66
2022/02/01 10:48:15;;;;;;;6.30;2.33;;;5.10;99.70;;;;;;5029465;28;20459;-67
2022/02/01 10:50:42;;;;;;;5.57;1.93;;;5.10;99.70;;;;;;5031817;28;20448;-67
2022/02/01 10:53:19;;;;;;;10.13;2.73;;;5.10;99.70;;;;;;5034329;28;20448;-67
2022/02/01 10:55:48;;;;;;;6.77;2.47;;;5.20;99.70;;;;;;5051980;28;20459;-67
2022/02/01 10:58:15;;;;;;;5.47;2.30;;;5.10;99.70;;;;;;5051996;28;20867;-65
2022/02/01 11:00:43;;;;;;;6.60;2.40;;;5.10;99.70;;;;;;5047775;28;20508;-66
2022/02/01 11:03:12;;;;;;;8.73;2.10;;;5.00;99.70;;;;;;5049579;28;20451;-65
2022/02/01 11:05:42;;;;;;;8.73;2.70;;;5.10;99.70;;;;;;5049350;28;20483;-66
2022/02/01 11:08:13;;;;;;;7.13;2.23;;;5.10;99.70;;;;;;5049900;28;20440;-66
2022/02/01 11:10:44;;;;;;;4.70;2.33;;;5.10;99.70;;;;;;5051499;28;20451;-66
2022/02/01 11:13:13;;;;;;;10.37;2.20;;;5.00;99.70;;;;;;5052319;28;20444;-67
2022/02/01 11:15:40;;;;;;;5.70;2.70;;;4.90;99.70;;;;;;5051701;28;20447;-67
2022/02/01 11:18:11;;;;;;;6.60;2.00;;;5.00;99.70;;;;;;5050928;28;20967;-67
2022/02/01 11:20:38;;;;;;;8.10;2.23;;;5.00;99.70;;;;;;5051752;28;20795;-67
2022/02/01 11:23:06;;;;;;;6.77;2.17;;;5.10;99.70;;;;;;5048832;28;20714;-66
2022/02/01 11:25:44;;;;;;;3.50;1.93;;;5.10;99.70;;;;;;5030599;28;20491;-66
2022/02/01 11:28:21;;;;;;;5.77;2.20;;;5.20;99.70;;;;;;5031665;28;20925;-66
2022/02/01 11:30:53;;;;;;;8.77;2.30;;;5.30;99.70;;;;;;5039137;28;20510;-67
2022/02/01 11:33:20;;;;;;;6.23;2.17;;;5.20;99.70;;;;;;5031335;28;20528;-66
2022/02/01 11:35:58;;;;;;;5.57;2.30;;;5.10;99.70;;;;;;5030588;28;20491;-66
2022/02/01 11:38:25;;;;;;;8.17;2.40;;;5.20;99.70;;;;;;5034858;28;20486;-66
2022/02/01 11:41:00;;;;;;;13.40;2.80;;;5.20;99.70;;;;;;5047470;28;20525;-65
2022/02/01 11:43:28;;;;;;;7.47;2.50;;;5.10;99.70;;;;;;5051464;28;20502;-65
2022/02/01 11:45:57;;;;;;;5.90;2.30;;;5.10;99.70;;;;;;5041751;28;20488;-65
2022/02/01 11:48:25;;;;;;;5.60;2.40;;;5.20;99.70;;;;;;5054883;28;20973;-66
2022/02/01 11:50:54;;;;;;;8.23;2.40;;;5.10;99.70;;;;;;5062793;28;20444;-65
2022/02/01 11:53:24;;;;;;;9.07;2.90;;;5.10;99.70;;;;;;5051328;28;20471;-65
2022/02/01 11:55:54;;;;;;;7.70;2.40;;;5.10;99.70;;;;;;5050983;28;20503;-65
2022/02/01 11:58:30;;;;;;;7.57;2.23;;;5.30;99.70;;;;;;5038328;28;20463;-65
2022/02/01 12:00:57;;;;;;;6.13;2.33;;;5.30;99.70;;;;;;5053095;28;20442;-65
2022/02/01 12:03:30;;;;;;;7.90;2.33;;;5.20;99.70;;;;;;5058886;28;20451;-65
2022/02/01 12:06:04;;;;;;;5.03;2.40;;;5.20;99.70;;;;;;5055427;28;20460;-66
2022/02/01 12:08:32;;;;;;;9.50;2.30;;;5.20;99.70;;;;;;5055071;28;20463;-66
2022/02/01 12:11:02;;;;;;;5.47;2.50;;;5.20;99.70;;;;;;5052122;28;20448;-66
2022/02/01 12:13:32;;;;;;;8.37;2.60;;;5.20;99.70;;;;;;5062932;28;20442;-66
2022/02/01 12:16:00;;;;;;;7.10;2.30;;;5.00;99.70;;;;;;5041970;28;20468;-66
2022/02/01 12:18:34;;;;;;;8.13;2.20;;;5.00;99.70;;;;;;5033992;28;20487;-66
2022/02/01 12:21:14;;;;;;;5.60;2.20;;;5.00;99.70;;;;;;5037263;28;20459;-65
2022/02/01 12:23:46;;;;;;;4.37;2.17;;;5.00;99.70;;;;;;5039052;28;20464;-66
2022/02/01 12:26:19;;;;;;;8.10;2.13;;;5.00;99.70;;;;;;5039161;28;20488;-65
2022/02/01 12:28:47;;;;;;;6.90;2.40;;;5.00;99.70;;;;;;5051214;28;20447;-65
2022/02/01 12:31:16;;;;;;;5.80;2.37;;;5.00;99.70;;;;;;5036878;28;20450;-63
2022/02/01 12:33:44;;;;;;;6.23;2.33;;;5.00;99.70;;;;;;5057884;28;20452;-64
2022/02/01 12:36:12;;;;;;;5.63;2.30;;;4.80;99.70;;;;;;5027693;28;20464;-65
2022/02/01 12:38:41;;;;;;;7.17;2.70;;;4.80;99.70;;;;;;5039525;28;20529;-64
2022/02/01 12:41:14;;;;;;;7.17;2.40;;;4.70;99.70;;;;;;5054871;28;20428;-65
2022/02/01 12:46:43;;;;;;;6.97;2.63;;;4.60;99.70;;;;;;5017350;28;20460;-65
2022/02/01 12:49:10;;;;;;;7.53;2.77;;;4.70;99.70;;;;;;5053321;28;20450;-65
2022/02/01 12:51:42;;;;;;;7.10;2.40;;;4.60;99.70;;;;;;5046318;28;20871;-65
2022/02/01 12:54:21;;;;;;;6.07;2.43;;;4.70;99.70;;;;;;5059690;28;20434;-65
2022/02/01 12:56:48;;;;;;;7.03;2.43;;;4.50;99.70;;;;;;5034979;28;20472;-65
2022/02/01 12:59:18;;;;;;;7.77;2.53;;;4.50;99.70;;;;;;5057853;28;20435;-65
2022/02/01 13:01:45;;;;;;;5.63;2.13;;;4.50;99.70;;;;;;5063759;28;20972;-65
2022/02/01 13:04:22;;;;;;;4.13;2.23;;;4.60;99.70;;;;;;5057359;28;20518;-65
2022/02/01 13:06:50;;;;;;;10.40;2.33;;;4.70;99.70;;;;;;5048343;28;21035;-65
2022/02/01 13:15:07;;;;;;;4.10;2.20;;;4.60;99.70;;;;;;5034331;28;20436;-65
2022/02/01 13:17:40;;;;;;;4.80;2.00;;;4.60;99.70;;;;;;5035258;28;20836;-65
2022/02/01 13:20:17;;;;;;;5.20;2.10;;;4.70;99.70;;;;;;5040994;28;20464;-65
2022/02/01 13:22:52;;;;;;;6.77;2.40;;;4.60;99.70;;;;;;5048036;28;20489;-65
2022/02/01 13:25:28;;;;;;;4.90;2.40;;;4.60;99.70;;;;;;5049409;28;21025;-66
2022/02/01 13:27:57;;;;;;;4.83;1.90;;;4.60;99.70;;;;;;5047233;28;20892;-66
2022/02/01 13:30:25;;;;;;;5.80;2.03;;;4.50;99.70;;;;;;5059012;28;20451;-66
2022/02/01 13:32:53;;;;;;;7.67;2.30;;;4.60;99.70;;;;;;5059698;28;20436;-66
2022/02/01 13:35:20;;;;;;;7.03;2.70;;;4.50;99.70;;;;;;5044013;28;20479;-66
2022/02/01 13:37:48;;;;;;;6.13;2.30;;;4.40;99.70;;;;;;5059578;28;20455;-63
2022/02/01 13:40:27;;;;;;;5.23;2.37;;;4.50;99.70;;;;;;5046506;28;20589;-65
2022/02/01 13:42:56;;;;;;;5.20;2.30;;;4.50;99.70;;;;;;5060627;28;20442;-65
2022/02/01 13:45:34;;;;;;;5.63;2.20;;;4.60;99.70;;;;;;5073335;28;20509;-65
2022/02/01 13:48:01;;;;;;;6.27;2.33;;;4.40;99.70;;;;;;5044684;28;20873;-66
2022/02/01 13:50:28;;;;;;;5.73;2.40;;;4.40;99.70;;;;;;5050457;28;20948;-65
2022/02/01 13:52:59;;;;;;;10.10;3.23;;;4.40;99.70;;;;;;5041452;28;20467;-65
2022/02/01 13:55:28;;;;;;;6.60;2.53;;;4.40;99.70;;;;;;5049521;28;20452;-65
2022/02/01 13:58:03;;;;;;;10.57;2.33;;;4.40;99.70;;;;;;5048633;28;20454;-66
2022/02/01 14:00:35;;;;;;;9.57;2.97;;;4.30;99.70;;;;;;5044656;28;21034;-66
2022/02/01 14:03:11;;;;;;;7.37;2.90;;;4.40;99.70;;;;;;5058919;28;20525;-66
2022/02/01 14:05:40;;;;;;;6.93;2.53;;;4.40;99.70;;;;;;5054226;28;20472;-66
2022/02/01 14:08:33;;;;;;;7.00;2.40;;;4.30;99.70;;;;;;5050039;28;20824;-66
2022/02/01 14:11:28;;;;;;;4.87;2.57;;;4.30;99.70;;;;;;5043346;28;20462;-66
2022/02/01 14:14:16;;;;;;;8.30;2.70;;;4.30;99.70;;;;;;5046394;28;20448;-66
2022/02/01 14:23:04;;;;;;;6.50;2.40;;;4.20;99.70;;;;;;5055523;28;20435;-66
2022/02/01 14:28:23;;;;;;;4.80;2.33;;;4.30;99.70;;;;;;5042110;28;20522;-66
2022/02/01 14:33:52;;;;;;;5.63;2.50;;;4.10;99.70;;;;;;5013325;28;20542;-66